sensor_id;sensor_type;location;lat;lon;timestamp;pressure;altitude;pressure_sealevel;temperature;humidity
26436;BME280;15351;52.408;16.826;2023-01-31T00:00:02;100045.55;;;6.06;76.77
26436;BME280;15351;52.408;16.826;2023-01-31T00:02:55;100046.99;;;6.06;76.40
26436;BME280;15351;52.408;16.826;2023-01-31T00:06:38;100051.70;;;6.05;76.31
26436;BME280;15351;52.408;16.826;2023-01-31T00:09:31;100064.33;;;6.06;76.49
26436;BME280;15351;52.408;16.826;2023-01-31T00:11:59;100055.86;;;6.08;76.30
26436;BME280;15351;52.408;16.826;2023-01-31T00:14:29;100065.55;;;6.08;75.89
26436;BME280;15351;52.408;16.826;2023-01-31T00:16:59;100064.30;;;6.08;75.54
26436;BME280;15351;52.408;16.826;2023-01-31T00:19:27;100069.11;;;6.06;75.49
26436;BME280;15351;52.408;16.826;2023-01-31T00:21:57;100073.21;;;6.03;75.56
26436;BME280;15351;52.408;16.826;2023-01-31T00:24:38;100084.26;;;5.98;75.71
26436;BME280;15351;52.408;16.826;2023-01-31T00:27:23;100093.95;;;5.97;75.54
26436;BME280;15351;52.408;16.826;2023-01-31T00:29:58;100091.81;;;5.97;75.32
26436;BME280;15351;52.408;16.826;2023-01-31T00:32:26;100095.78;;;6.00;75.13
26436;BME280;15351;52.408;16.826;2023-01-31T00:34:58;100100.08;;;5.98;75.16
26436;BME280;15351;52.408;16.826;2023-01-31T00:37:47;100101.27;;;5.97;75.30
26436;BME280;15351;52.408;16.826;2023-01-31T00:40:16;100105.30;;;5.98;75.26
26436;BME280;15351;52.408;16.826;2023-01-31T00:42:45;100109.58;;;5.98;74.96
26436;BME280;15351;52.408;16.826;2023-01-31T00:45:56;100119.27;;;5.96;74.70
26436;BME280;15351;52.408;16.826;2023-01-31T00:48:53;100124.69;;;5.95;74.55
26436;BME280;15351;52.408;16.826;2023-01-31T00:51:29;100125.66;;;5.94;74.88
26436;BME280;15351;52.408;16.826;2023-01-31T00:54:04;100131.91;;;5.93;74.87
26436;BME280;15351;52.408;16.826;2023-01-31T00:56:58;100139.56;;;5.93;74.73
26436;BME280;15351;52.408;16.826;2023-01-31T00:59:31;100143.82;;;5.94;74.39
26436;BME280;15351;52.408;16.826;2023-01-31T01:02:07;100142.54;;;5.94;74.30
26436;BME280;15351;52.408;16.826;2023-01-31T01:04:35;100146.66;;;5.94;74.08
26436;BME280;15351;52.408;16.826;2023-01-31T01:07:11;100150.23;;;5.88;74.12
26436;BME280;15351;52.408;16.826;2023-01-31T01:09:38;100158.92;;;5.87;74.29
26436;BME280;15351;52.408;16.826;2023-01-31T01:12:07;100155.13;;;5.89;74.14
26436;BME280;15351;52.408;16.826;2023-01-31T01:14:40;100156.69;;;5.89;73.93
26436;BME280;15351;52.408;16.826;2023-01-31T01:17:28;100163.46;;;5.83;73.70
26436;BME280;15351;52.408;16.826;2023-01-31T01:19:56;100166.36;;;5.79;74.07
26436;BME280;15351;52.408;16.826;2023-01-31T01:22:29;100171.85;;;5.77;74.34
26436;BME280;15351;52.408;16.826;2023-01-31T01:25:17;100177.44;;;5.73;74.38
26436;BME280;15351;52.408;16.826;2023-01-31T01:27:46;100183.95;;;5.73;74.33
26436;BME280;15351;52.408;16.826;2023-01-31T01:30:16;100190.73;;;5.74;74.32
26436;BME280;15351;52.408;16.826;2023-01-31T01:32:54;100196.17;;;5.75;74.23
26436;BME280;15351;52.408;16.826;2023-01-31T01:35:52;100202.73;;;5.74;74.44
26436;BME280;15351;52.408;16.826;2023-01-31T01:38:22;100203.14;;;5.75;74.41
26436;BME280;15351;52.408;16.826;2023-01-31T01:41:05;100208.48;;;5.79;74.23
26436;BME280;15351;52.408;16.826;2023-01-31T01:43:58;100212.75;;;5.81;74.26
26436;BME280;15351;52.408;16.826;2023-01-31T01:47:41;100221.52;;;5.80;74.06
26436;BME280;15351;52.408;16.826;2023-01-31T01:51:05;100225.79;;;5.83;74.08
26436;BME280;15351;52.408;16.826;2023-01-31T01:54:08;100224.30;;;5.79;73.84
26436;BME280;15351;52.408;16.826;2023-01-31T01:56:45;100230.71;;;5.76;73.56
26436;BME280;15351;52.408;16.826;2023-01-31T01:59:36;100239.92;;;5.75;73.30
26436;BME280;15351;52.408;16.826;2023-01-31T02:02:34;100236.08;;;5.71;73.04
26436;BME280;15351;52.408;16.826;2023-01-31T02:05:30;100237.50;;;5.69;73.09
26436;BME280;15351;52.408;16.826;2023-01-31T02:08:22;100247.14;;;5.67;73.04
26436;BME280;15351;52.408;16.826;2023-01-31T02:11:36;100247.61;;;5.70;73.00
26436;BME280;15351;52.408;16.826;2023-01-31T02:14:08;100254.27;;;5.72;72.79
26436;BME280;15351;52.408;16.826;2023-01-31T02:16:48;100261.16;;;5.75;72.39
26436;BME280;15351;52.408;16.826;2023-01-31T02:19:50;100269.42;;;5.74;72.51
26436;BME280;15351;52.408;16.826;2023-01-31T02:22:28;100271.27;;;5.72;72.68
26436;BME280;15351;52.408;16.826;2023-01-31T02:35:09;100297.36;;;5.62;72.10
26436;BME280;15351;52.408;16.826;2023-01-31T02:45:19;100309.21;;;5.61;72.03
26436;BME280;15351;52.408;16.826;2023-01-31T02:51:51;100325.82;;;5.61;72.41
26436;BME280;15351;52.408;16.826;2023-01-31T02:54:38;100330.42;;;5.63;72.46
26436;BME280;15351;52.408;16.826;2023-01-31T03:00:31;100335.08;;;5.69;72.14
26436;BME280;15351;52.408;16.826;2023-01-31T03:03:26;100337.21;;;5.67;72.21
26436;BME280;15351;52.408;16.826;2023-01-31T03:14:16;100353.15;;;5.64;71.49
26436;BME280;15351;52.408;16.826;2023-01-31T03:20:36;100361.77;;;5.68;71.58
26436;BME280;15351;52.408;16.826;2023-01-31T03:23:26;100364.36;;;5.72;71.35
26436;BME280;15351;52.408;16.826;2023-01-31T03:25:57;100369.27;;;5.73;70.80
26436;BME280;15351;52.408;16.826;2023-01-31T03:28:34;100373.98;;;5.72;70.73
26436;BME280;15351;52.408;16.826;2023-01-31T03:31:36;100380.16;;;5.69;70.77
26436;BME280;15351;52.408;16.826;2023-01-31T03:34:08;100376.05;;;5.65;70.92
26436;BME280;15351;52.408;16.826;2023-01-31T03:41:00;100388.04;;;5.63;70.78
26436;BME280;15351;52.408;16.826;2023-01-31T03:43:32;100392.69;;;5.63;70.58
26436;BME280;15351;52.408;16.826;2023-01-31T03:46:37;100391.59;;;5.63;70.41
26436;BME280;15351;52.408;16.826;2023-01-31T03:49:30;100397.02;;;5.61;70.58
26436;BME280;15351;52.408;16.826;2023-01-31T03:52:28;100401.73;;;5.60;70.63
26436;BME280;15351;52.408;16.826;2023-01-31T03:55:23;100404.90;;;5.60;70.32
26436;BME280;15351;52.408;16.826;2023-01-31T03:58:12;100405.76;;;5.59;70.05
26436;BME280;15351;52.408;16.826;2023-01-31T04:00:42;100414.61;;;5.56;70.10
26436;BME280;15351;52.408;16.826;2023-01-31T04:03:46;100412.95;;;5.55;70.30
26436;BME280;15351;52.408;16.826;2023-01-31T04:06:35;100413.34;;;5.49;70.30
26436;BME280;15351;52.408;16.826;2023-01-31T04:09:24;100416.23;;;5.49;70.61
26436;BME280;15351;52.408;16.826;2023-01-31T04:12:02;100424.35;;;5.51;70.43
26436;BME280;15351;52.408;16.826;2023-01-31T04:14:43;100424.52;;;5.50;70.12
26436;BME280;15351;52.408;16.826;2023-01-31T04:17:11;100432.67;;;5.49;70.04
26436;BME280;15351;52.408;16.826;2023-01-31T04:19:41;100428.67;;;5.47;70.16
26436;BME280;15351;52.408;16.826;2023-01-31T04:22:10;100435.95;;;5.46;70.31
26436;BME280;15351;52.408;16.826;2023-01-31T04:24:37;100434.94;;;5.47;70.13
26436;BME280;15351;52.408;16.826;2023-01-31T04:27:04;100441.66;;;5.51;69.83
26436;BME280;15351;52.408;16.826;2023-01-31T04:29:34;100449.66;;;5.48;69.47
26436;BME280;15351;52.408;16.826;2023-01-31T04:32:02;100453.68;;;5.47;69.49
26436;BME280;15351;52.408;16.826;2023-01-31T04:34:30;100457.65;;;5.47;69.54
26436;BME280;15351;52.408;16.826;2023-01-31T04:36:58;100458.15;;;5.47;69.61
26436;BME280;15351;52.408;16.826;2023-01-31T04:39:26;100463.89;;;5.49;69.67
26436;BME280;15351;52.408;16.826;2023-01-31T04:41:59;100464.28;;;5.50;69.53
26436;BME280;15351;52.408;16.826;2023-01-31T04:44:33;100465.48;;;5.50;69.55
26436;BME280;15351;52.408;16.826;2023-01-31T04:47:21;100463.30;;;5.50;69.48
26436;BME280;15351;52.408;16.826;2023-01-31T04:49:58;100468.98;;;5.49;69.63
26436;BME280;15351;52.408;16.826;2023-01-31T04:52:32;100475.41;;;5.45;69.80
26436;BME280;15351;52.408;16.826;2023-01-31T04:55:04;100476.45;;;5.45;69.42
26436;BME280;15351;52.408;16.826;2023-01-31T04:57:54;100481.88;;;5.49;69.23
26436;BME280;15351;52.408;16.826;2023-01-31T05:00:36;100486.86;;;5.50;69.24
26436;BME280;15351;52.408;16.826;2023-01-31T05:03:31;100491.76;;;5.50;69.23
26436;BME280;15351;52.408;16.826;2023-01-31T05:06:03;100497.67;;;5.48;69.40
26436;BME280;15351;52.408;16.826;2023-01-31T05:08:51;100494.50;;;5.47;69.44
26436;BME280;15351;52.408;16.826;2023-01-31T05:11:30;100498.98;;;5.47;69.29
26436;BME280;15351;52.408;16.826;2023-01-31T05:14:33;100511.87;;;5.44;68.82
26436;BME280;15351;52.408;16.826;2023-01-31T05:17:07;100514.52;;;5.43;68.56
26436;BME280;15351;52.408;16.826;2023-01-31T05:19:52;100516.39;;;5.38;68.59
26436;BME280;15351;52.408;16.826;2023-01-31T05:22:34;100515.36;;;5.36;68.95
26436;BME280;15351;52.408;16.826;2023-01-31T05:25:14;100517.23;;;5.39;69.34
26436;BME280;15351;52.408;16.826;2023-01-31T05:27:41;100522.27;;;5.42;69.06
26436;BME280;15351;52.408;16.826;2023-01-31T05:30:20;100520.23;;;5.41;68.99
26436;BME280;15351;52.408;16.826;2023-01-31T05:32:54;100523.73;;;5.38;68.72
26436;BME280;15351;52.408;16.826;2023-01-31T05:35:56;100524.23;;;5.34;68.63
26436;BME280;15351;52.408;16.826;2023-01-31T05:39:07;100535.46;;;5.33;68.90
26436;BME280;15351;52.408;16.826;2023-01-31T05:41:56;100539.26;;;5.32;69.25
26436;BME280;15351;52.408;16.826;2023-01-31T05:44:45;100544.27;;;5.36;69.19
26436;BME280;15351;52.408;16.826;2023-01-31T05:47:23;100543.45;;;5.37;68.76
26436;BME280;15351;52.408;16.826;2023-01-31T05:49:50;100541.70;;;5.36;68.60
26436;BME280;15351;52.408;16.826;2023-01-31T05:53:03;100538.46;;;5.38;68.35
26436;BME280;15351;52.408;16.826;2023-01-31T05:55:39;100538.40;;;5.39;68.12
26436;BME280;15351;52.408;16.826;2023-01-31T05:58:15;100544.40;;;5.38;68.27
26436;BME280;15351;52.408;16.826;2023-01-31T06:00:42;100542.86;;;5.37;68.49
26436;BME280;15351;52.408;16.826;2023-01-31T06:03:32;100544.52;;;5.39;68.44
26436;BME280;15351;52.408;16.826;2023-01-31T06:06:23;100552.34;;;5.37;68.13
26436;BME280;15351;52.408;16.826;2023-01-31T06:08:52;100554.54;;;5.32;67.95
26436;BME280;15351;52.408;16.826;2023-01-31T06:12:09;100563.36;;;5.28;67.93
26436;BME280;15351;52.408;16.826;2023-01-31T06:15:13;100575.86;;;5.16;68.08
26436;BME280;15351;52.408;16.826;2023-01-31T06:17:49;100574.88;;;5.06;68.17
26436;BME280;15351;52.408;16.826;2023-01-31T06:20:41;100580.10;;;5.04;68.33
26436;BME280;15351;52.408;16.826;2023-01-31T06:23:33;100586.52;;;5.04;68.43
26436;BME280;15351;52.408;16.826;2023-01-31T06:26:06;100591.31;;;4.98;68.28
26436;BME280;15351;52.408;16.826;2023-01-31T06:28:46;100593.83;;;4.94;68.57
26436;BME280;15351;52.408;16.826;2023-01-31T06:31:18;100592.87;;;4.91;68.93
26436;BME280;15351;52.408;16.826;2023-01-31T06:34:00;100598.55;;;4.87;69.11
26436;BME280;15351;52.408;16.826;2023-01-31T06:36:31;100597.19;;;4.86;69.35
26436;BME280;15351;52.408;16.826;2023-01-31T06:39:20;100605.53;;;4.85;69.22
26436;BME280;15351;52.408;16.826;2023-01-31T06:41:51;100611.05;;;4.81;69.47
26436;BME280;15351;52.408;16.826;2023-01-31T06:44:21;100613.16;;;4.79;69.90
26436;BME280;15351;52.408;16.826;2023-01-31T06:47:08;100613.19;;;4.81;70.28
26436;BME280;15351;52.408;16.826;2023-01-31T06:49:55;100619.13;;;4.86;70.36
26436;BME280;15351;52.408;16.826;2023-01-31T06:52:27;100621.08;;;4.86;70.33
26436;BME280;15351;52.408;16.826;2023-01-31T06:55:31;100628.40;;;4.92;70.31
26436;BME280;15351;52.408;16.826;2023-01-31T06:58:09;100632.92;;;4.91;70.19
26436;BME280;15351;52.408;16.826;2023-01-31T07:00:45;100632.00;;;4.93;70.53
26436;BME280;15351;52.408;16.826;2023-01-31T07:03:22;100633.83;;;4.97;70.62
26436;BME280;15351;52.408;16.826;2023-01-31T07:05:50;100638.98;;;4.98;70.72
26436;BME280;15351;52.408;16.826;2023-01-31T07:08:51;100634.80;;;5.00;70.47
26436;BME280;15351;52.408;16.826;2023-01-31T07:11:19;100639.69;;;4.97;70.38
26436;BME280;15351;52.408;16.826;2023-01-31T07:13:48;100643.31;;;4.98;70.47
26436;BME280;15351;52.408;16.826;2023-01-31T07:16:16;100640.50;;;5.02;70.64
26436;BME280;15351;52.408;16.826;2023-01-31T07:19:23;100639.24;;;5.00;70.44
26436;BME280;15351;52.408;16.826;2023-01-31T07:22:11;100647.98;;;4.98;70.30
26436;BME280;15351;52.408;16.826;2023-01-31T07:25:01;100648.84;;;5.02;70.42
26436;BME280;15351;52.408;16.826;2023-01-31T07:27:38;100655.45;;;5.04;70.32
26436;BME280;15351;52.408;16.826;2023-01-31T07:30:10;100664.45;;;4.97;70.05
26436;BME280;15351;52.408;16.826;2023-01-31T07:32:42;100669.29;;;4.89;70.31
26436;BME280;15351;52.408;16.826;2023-01-31T07:35:36;100668.14;;;4.90;70.36
26436;BME280;15351;52.408;16.826;2023-01-31T07:38:40;100669.40;;;4.90;70.24
26436;BME280;15351;52.408;16.826;2023-01-31T07:41:21;100667.46;;;4.89;70.26
26436;BME280;15351;52.408;16.826;2023-01-31T07:43:49;100666.67;;;4.88;70.26
26436;BME280;15351;52.408;16.826;2023-01-31T07:46:17;100662.73;;;4.90;70.49
26436;BME280;15351;52.408;16.826;2023-01-31T07:48:47;100667.67;;;4.95;70.53
26436;BME280;15351;52.408;16.826;2023-01-31T07:51:17;100667.73;;;4.92;70.45
26436;BME280;15351;52.408;16.826;2023-01-31T07:53:47;100664.60;;;4.92;70.44
26436;BME280;15351;52.408;16.826;2023-01-31T07:56:19;100667.56;;;4.94;70.33
26436;BME280;15351;52.408;16.826;2023-01-31T07:58:50;100670.34;;;4.95;70.50
26436;BME280;15351;52.408;16.826;2023-01-31T08:01:25;100668.32;;;5.00;70.70
26436;BME280;15351;52.408;16.826;2023-01-31T08:04:13;100669.21;;;5.07;70.60
26436;BME280;15351;52.408;16.826;2023-01-31T08:06:52;100668.39;;;5.06;70.27
26436;BME280;15351;52.408;16.826;2023-01-31T08:09:21;100671.21;;;5.08;69.89
26436;BME280;15351;52.408;16.826;2023-01-31T08:11:59;100679.56;;;5.03;69.69
26436;BME280;15351;52.408;16.826;2023-01-31T08:14:42;100683.39;;;4.99;69.80
26436;BME280;15351;52.408;16.826;2023-01-31T08:17:15;100678.78;;;4.96;70.02
26436;BME280;15351;52.408;16.826;2023-01-31T08:19:49;100680.67;;;4.97;70.28
26436;BME280;15351;52.408;16.826;2023-01-31T08:22:19;100681.45;;;4.96;70.10
26436;BME280;15351;52.408;16.826;2023-01-31T08:24:59;100686.04;;;4.99;70.07
26436;BME280;15351;52.408;16.826;2023-01-31T08:27:48;100691.88;;;5.01;69.82
26436;BME280;15351;52.408;16.826;2023-01-31T08:30:25;100691.44;;;5.02;70.05
26436;BME280;15351;52.408;16.826;2023-01-31T08:32:55;100694.62;;;5.04;70.15
26436;BME280;15351;52.408;16.826;2023-01-31T08:35:33;100699.99;;;5.06;70.20
26436;BME280;15351;52.408;16.826;2023-01-31T08:38:22;100701.02;;;5.10;70.06
26436;BME280;15351;52.408;16.826;2023-01-31T08:40:58;100703.90;;;5.11;70.05
26436;BME280;15351;52.408;16.826;2023-01-31T08:43:30;100706.30;;;5.09;69.58
26436;BME280;15351;52.408;16.826;2023-01-31T08:46:00;100709.17;;;5.07;69.93
26436;BME280;15351;52.408;16.826;2023-01-31T08:49:01;100709.58;;;5.12;70.23
26436;BME280;15351;52.408;16.826;2023-01-31T08:51:31;100705.36;;;5.21;70.44
26436;BME280;15351;52.408;16.826;2023-01-31T08:54:00;100695.05;;;5.30;70.41
26436;BME280;15351;52.408;16.826;2023-01-31T08:56:31;100693.35;;;5.37;70.17
26436;BME280;15351;52.408;16.826;2023-01-31T08:58:58;100694.56;;;5.38;69.94
26436;BME280;15351;52.408;16.826;2023-01-31T09:01:34;100698.66;;;5.37;70.00
26436;BME280;15351;52.408;16.826;2023-01-31T09:04:03;100700.56;;;5.32;69.98
26436;BME280;15351;52.408;16.826;2023-01-31T09:06:36;100701.05;;;5.31;70.03
26436;BME280;15351;52.408;16.826;2023-01-31T09:09:15;100701.48;;;5.30;70.17
26436;BME280;15351;52.408;16.826;2023-01-31T09:11:46;100695.65;;;5.33;70.09
26436;BME280;15351;52.408;16.826;2023-01-31T09:14:21;100696.25;;;5.42;70.26
26436;BME280;15351;52.408;16.826;2023-01-31T09:17:13;100696.43;;;5.50;70.15
26436;BME280;15351;52.408;16.826;2023-01-31T09:19:55;100705.00;;;5.73;70.13
26436;BME280;15351;52.408;16.826;2023-01-31T09:25:56;100696.05;;;7.26;67.92
26436;BME280;15351;52.408;16.826;2023-01-31T09:28:38;100696.33;;;7.66;67.32
26436;BME280;15351;52.408;16.826;2023-01-31T09:31:16;100694.48;;;8.57;65.68
26436;BME280;15351;52.408;16.826;2023-01-31T09:34:17;100699.48;;;8.78;64.41
26436;BME280;15351;52.408;16.826;2023-01-31T09:36:47;100699.56;;;8.50;63.43
26436;BME280;15351;52.408;16.826;2023-01-31T09:39:23;100700.85;;;8.21;63.29
26436;BME280;15351;52.408;16.826;2023-01-31T09:42:43;100708.56;;;7.91;63.47
26436;BME280;15351;52.408;16.826;2023-01-31T09:45:33;100712.38;;;7.73;63.75
26436;BME280;15351;52.408;16.826;2023-01-31T09:48:06;100712.80;;;7.59;64.07
26436;BME280;15351;52.408;16.826;2023-01-31T09:50:49;100707.57;;;7.45;64.31
26436;BME280;15351;52.408;16.826;2023-01-31T09:53:22;100711.65;;;7.31;64.61
26436;BME280;15351;52.408;16.826;2023-01-31T09:59:12;100712.11;;;7.11;65.65
26436;BME280;15351;52.408;16.826;2023-01-31T10:02:37;100704.55;;;7.04;65.45
26436;BME280;15351;52.408;16.826;2023-01-31T10:05:50;100702.00;;;6.90;65.63
26436;BME280;15351;52.408;16.826;2023-01-31T10:09:01;100700.42;;;6.79;65.42
26436;BME280;15351;52.408;16.826;2023-01-31T10:11:46;100698.71;;;6.91;65.69
26436;BME280;15351;52.408;16.826;2023-01-31T10:14:46;100696.06;;;7.26;66.59
26436;BME280;15351;52.408;16.826;2023-01-31T10:21:59;100679.63;;;8.50;65.10
26436;BME280;15351;52.408;16.826;2023-01-31T10:25:19;100676.56;;;8.81;63.21
26436;BME280;15351;52.408;16.826;2023-01-31T10:58:59;100673.88;;;7.44;63.26
26436;BME280;15351;52.408;16.826;2023-01-31T11:06:03;100660.70;;;7.29;64.45
26436;BME280;15351;52.408;16.826;2023-01-31T11:08:59;100656.66;;;7.30;64.90
26436;BME280;15351;52.408;16.826;2023-01-31T11:15:51;100642.72;;;7.28;65.05
26436;BME280;15351;52.408;16.826;2023-01-31T11:22:23;100632.44;;;7.15;64.87
26436;BME280;15351;52.408;16.826;2023-01-31T11:25:58;100626.74;;;6.97;65.24
26436;BME280;15351;52.408;16.826;2023-01-31T11:29:21;100626.54;;;6.94;65.42
26436;BME280;15351;52.408;16.826;2023-01-31T11:32:46;100622.63;;;6.88;65.76
26436;BME280;15351;52.408;16.826;2023-01-31T11:35:43;100621.67;;;6.82;65.93
26436;BME280;15351;52.408;16.826;2023-01-31T11:38:46;100619.33;;;6.79;66.22
26436;BME280;15351;52.408;16.826;2023-01-31T11:41:46;100614.64;;;6.70;66.24
26436;BME280;15351;52.408;16.826;2023-01-31T11:45:02;100609.64;;;6.60;66.66
26436;BME280;15351;52.408;16.826;2023-01-31T11:52:21;100607.83;;;6.51;67.14
26436;BME280;15351;52.408;16.826;2023-01-31T11:58:39;100603.60;;;6.45;67.72
26436;BME280;15351;52.408;16.826;2023-01-31T12:01:28;100596.30;;;6.54;68.17
26436;BME280;15351;52.408;16.826;2023-01-31T12:04:12;100596.49;;;6.61;68.65
26436;BME280;15351;52.408;16.826;2023-01-31T12:07:25;100593.16;;;6.65;69.04
26436;BME280;15351;52.408;16.826;2023-01-31T12:10:47;100585.63;;;6.69;69.37
26436;BME280;15351;52.408;16.826;2023-01-31T12:13:51;100576.88;;;6.75;69.67
26436;BME280;15351;52.408;16.826;2023-01-31T12:26:59;100548.96;;;6.70;70.04
26436;BME280;15351;52.408;16.826;2023-01-31T12:46:01;100527.19;;;6.27;72.77
26436;BME280;15351;52.408;16.826;2023-01-31T12:48:50;100521.13;;;6.12;73.41
26436;BME280;15351;52.408;16.826;2023-01-31T12:51:42;100512.71;;;6.03;73.95
26436;BME280;15351;52.408;16.826;2023-01-31T12:55:17;100504.95;;;6.04;74.46
26436;BME280;15351;52.408;16.826;2023-01-31T12:58:23;100498.23;;;6.04;74.89
26436;BME280;15351;52.408;16.826;2023-01-31T13:04:54;100484.73;;;5.97;75.74
26436;BME280;15351;52.408;16.826;2023-01-31T13:07:43;100479.24;;;6.01;76.02
26436;BME280;15351;52.408;16.826;2023-01-31T13:10:45;100475.51;;;6.04;76.40
26436;BME280;15351;52.408;16.826;2023-01-31T13:14:16;100473.00;;;6.04;76.97
26436;BME280;15351;52.408;16.826;2023-01-31T13:17:54;100474.29;;;6.00;77.18
26436;BME280;15351;52.408;16.826;2023-01-31T13:20:55;100469.83;;;6.02;77.44
26436;BME280;15351;52.408;16.826;2023-01-31T13:23:53;100472.36;;;5.98;77.36
26436;BME280;15351;52.408;16.826;2023-01-31T13:26:53;100463.33;;;5.94;77.78
26436;BME280;15351;52.408;16.826;2023-01-31T13:30:04;100464.81;;;5.97;78.15
26436;BME280;15351;52.408;16.826;2023-01-31T13:33:11;100462.83;;;5.90;78.03
26436;BME280;15351;52.408;16.826;2023-01-31T13:35:43;100455.35;;;5.94;78.38
26436;BME280;15351;52.408;16.826;2023-01-31T13:38:34;100457.40;;;5.95;78.35
26436;BME280;15351;52.408;16.826;2023-01-31T13:41:32;100453.15;;;5.91;78.41
26436;BME280;15351;52.408;16.826;2023-01-31T13:44:31;100445.36;;;5.81;78.64
26436;BME280;15351;52.408;16.826;2023-01-31T13:47:43;100446.25;;;5.74;78.70
26436;BME280;15351;52.408;16.826;2023-01-31T13:51:23;100439.43;;;5.63;78.83
26436;BME280;15351;52.408;16.826;2023-01-31T13:58:03;100425.81;;;5.51;79.37
26436;BME280;15351;52.408;16.826;2023-01-31T14:01:11;100421.15;;;5.53;79.61
26436;BME280;15351;52.408;16.826;2023-01-31T14:07:18;100408.16;;;5.56;79.75
26436;BME280;15351;52.408;16.826;2023-01-31T14:13:05;100396.46;;;5.63;79.99
26436;BME280;15351;52.408;16.826;2023-01-31T14:15:52;100393.42;;;5.59;80.06
26436;BME280;15351;52.408;16.826;2023-01-31T14:18:51;100388.23;;;5.51;79.96
26436;BME280;15351;52.408;16.826;2023-01-31T14:21:42;100380.42;;;5.52;80.29
26436;BME280;15351;52.408;16.826;2023-01-31T14:30:41;100372.16;;;5.47;80.83
26436;BME280;15351;52.408;16.826;2023-01-31T14:33:44;100373.56;;;5.49;81.01
26436;BME280;15351;52.408;16.826;2023-01-31T14:37:45;100371.45;;;5.49;81.09
26436;BME280;15351;52.408;16.826;2023-01-31T14:43:29;100370.94;;;5.47;81.52
26436;BME280;15351;52.408;16.826;2023-01-31T14:46:40;100364.92;;;5.43;81.54
26436;BME280;15351;52.408;16.826;2023-01-31T14:49:42;100358.58;;;5.38;81.66
26436;BME280;15351;52.408;16.826;2023-01-31T14:56:27;100344.88;;;5.38;82.07
26436;BME280;15351;52.408;16.826;2023-01-31T14:59:23;100349.55;;;5.40;82.07
26436;BME280;15351;52.408;16.826;2023-01-31T15:02:46;100343.80;;;5.33;82.14
26436;BME280;15351;52.408;16.826;2023-01-31T15:05:52;100339.27;;;5.32;82.23
26436;BME280;15351;52.408;16.826;2023-01-31T15:08:44;100339.91;;;5.34;82.59
26436;BME280;15351;52.408;16.826;2023-01-31T15:14:36;100329.95;;;5.40;82.67
26436;BME280;15351;52.408;16.826;2023-01-31T15:17:23;100331.52;;;5.38;82.66
26436;BME280;15351;52.408;16.826;2023-01-31T15:20:23;100325.95;;;5.40;82.82
26436;BME280;15351;52.408;16.826;2023-01-31T15:23:27;100323.58;;;5.41;82.83
26436;BME280;15351;52.408;16.826;2023-01-31T15:26:08;100324.58;;;5.38;82.83
26436;BME280;15351;52.408;16.826;2023-01-31T15:28:57;100316.77;;;5.32;82.88
26436;BME280;15351;52.408;16.826;2023-01-31T15:31:35;100314.44;;;5.34;83.05
26436;BME280;15351;52.408;16.826;2023-01-31T15:34:19;100313.34;;;5.40;83.21
26436;BME280;15351;52.408;16.826;2023-01-31T15:37:20;100309.58;;;5.38;83.10
26436;BME280;15351;52.408;16.826;2023-01-31T15:40:02;100306.69;;;5.37;83.31
26436;BME280;15351;52.408;16.826;2023-01-31T15:42:32;100303.54;;;5.36;83.29
26436;BME280;15351;52.408;16.826;2023-01-31T15:45:22;100298.64;;;5.41;83.40
26436;BME280;15351;52.408;16.826;2023-01-31T15:48:20;100296.48;;;5.43;83.47
26436;BME280;15351;52.408;16.826;2023-01-31T15:51:14;100292.98;;;5.42;83.45
26436;BME280;15351;52.408;16.826;2023-01-31T15:53:43;100287.91;;;5.44;83.52
26436;BME280;15351;52.408;16.826;2023-01-31T15:56:24;100280.93;;;5.45;83.60
26436;BME280;15351;52.408;16.826;2023-01-31T15:58:56;100278.00;;;5.46;83.61
26436;BME280;15351;52.408;16.826;2023-01-31T16:01:28;100273.67;;;5.48;83.70
26436;BME280;15351;52.408;16.826;2023-01-31T16:03:58;100269.85;;;5.49;83.62
26436;BME280;15351;52.408;16.826;2023-01-31T16:06:33;100264.00;;;5.51;83.76
26436;BME280;15351;52.408;16.826;2023-01-31T16:09:05;100258.01;;;5.51;83.58
26436;BME280;15351;52.408;16.826;2023-01-31T16:11:41;100256.73;;;5.51;83.58
26436;BME280;15351;52.408;16.826;2023-01-31T16:14:12;100252.75;;;5.47;83.48
26436;BME280;15351;52.408;16.826;2023-01-31T16:16:45;100247.95;;;5.47;83.69
26436;BME280;15351;52.408;16.826;2023-01-31T16:19:37;100246.52;;;5.47;83.76
26436;BME280;15351;52.408;16.826;2023-01-31T16:22:41;100237.17;;;5.44;83.70
26436;BME280;15351;52.408;16.826;2023-01-31T16:25:23;100231.19;;;5.45;83.80
26436;BME280;15351;52.408;16.826;2023-01-31T16:28:03;100229.07;;;5.46;83.89
26436;BME280;15351;52.408;16.826;2023-01-31T16:30:34;100225.29;;;5.45;83.91
26436;BME280;15351;52.408;16.826;2023-01-31T16:33:02;100223.48;;;5.42;83.88
26436;BME280;15351;52.408;16.826;2023-01-31T16:35:35;100220.50;;;5.39;84.02
26436;BME280;15351;52.408;16.826;2023-01-31T16:38:22;100218.95;;;5.34;83.93
26436;BME280;15351;52.408;16.826;2023-01-31T16:40:54;100213.06;;;5.34;84.21
26436;BME280;15351;52.408;16.826;2023-01-31T16:43:33;100215.11;;;5.35;84.32
26436;BME280;15351;52.408;16.826;2023-01-31T16:46:10;100213.81;;;5.35;84.30
26436;BME280;15351;52.408;16.826;2023-01-31T16:49:00;100214.21;;;5.38;84.38
26436;BME280;15351;52.408;16.826;2023-01-31T16:54:29;100206.14;;;5.46;84.47
26436;BME280;15351;52.408;16.826;2023-01-31T17:02:57;100195.79;;;5.41;84.46
26436;BME280;15351;52.408;16.826;2023-01-31T17:05:49;100183.95;;;5.43;84.65
26436;BME280;15351;52.408;16.826;2023-01-31T17:08:23;100174.52;;;5.41;84.65
26436;BME280;15351;52.408;16.826;2023-01-31T17:10:53;100177.91;;;5.38;84.67
26436;BME280;15351;52.408;16.826;2023-01-31T17:13:30;100172.70;;;5.34;84.65